createdAt,value
2023-11-16T00:01:33.591Z,100.00
2023-11-16T00:04:08.630Z,100.00
2023-11-16T00:06:41.930Z,100.00
2023-11-16T00:09:16.630Z,100.00
2023-11-16T00:11:51.889Z,100.00
2023-11-16T00:14:28.243Z,100.00
2023-11-16T00:17:02.356Z,100.00
2023-11-16T00:19:36.886Z,100.00
2023-11-16T00:22:10.826Z,100.00
2023-11-16T00:24:45.250Z,100.00
2023-11-16T00:27:19.774Z,100.00
2023-11-16T00:29:54.925Z,100.00
2023-11-16T00:32:29.480Z,100.00
2023-11-16T00:35:03.942Z,100.00
2023-11-16T00:37:37.977Z,100.00
2023-11-16T00:40:15.299Z,100.00
2023-11-16T00:42:48.960Z,100.00
2023-11-16T00:45:23.080Z,100.00
2023-11-16T00:47:57.030Z,100.00
2023-11-16T00:50:32.291Z,100.00
2023-11-16T00:53:06.602Z,100.00
2023-11-16T00:55:40.514Z,100.00
2023-11-16T00:58:14.441Z,100.00
2023-11-16T01:00:50.533Z,100.00
2023-11-16T01:03:24.291Z,100.00
2023-11-16T01:05:58.398Z,100.00
2023-11-16T01:08:35.036Z,100.00
2023-11-16T01:11:09.882Z,100.00
2023-11-16T01:13:43.499Z,100.00
2023-11-16T01:16:19.342Z,100.00
2023-11-16T01:18:53.467Z,100.00
2023-11-16T01:21:27.066Z,100.00
2023-11-16T01:24:06.745Z,100.00
2023-11-16T01:26:42.309Z,100.00
2023-11-16T01:29:19.818Z,100.00
2023-11-16T01:31:56.189Z,100.00
2023-11-16T01:34:30.521Z,100.00
2023-11-16T01:37:05.344Z,100.00
2023-11-16T01:39:40.591Z,100.00
2023-11-16T01:42:13.998Z,100.00
2023-11-16T01:44:47.871Z,100.00
2023-11-16T01:47:21.238Z,100.00
2023-11-16T01:49:56.050Z,100.00
2023-11-16T01:52:30.133Z,100.00
2023-11-16T01:55:04.448Z,100.00
2023-11-16T01:57:39.129Z,100.00
2023-11-16T02:00:17.441Z,100.00
2023-11-16T02:02:52.375Z,100.00
2023-11-16T02:05:26.277Z,100.00
2023-11-16T02:07:59.811Z,100.00
2023-11-16T02:10:34.106Z,100.00
2023-11-16T02:13:18.271Z,100.00
2023-11-16T02:15:53.838Z,100.00
2023-11-16T02:18:31.274Z,100.00
2023-11-16T02:21:05.919Z,100.00
2023-11-16T02:23:41.827Z,100.00
2023-11-16T02:26:16.710Z,100.00
2023-11-16T02:28:50.942Z,100.00
2023-11-16T02:31:37.692Z,100.00
2023-11-16T02:34:12.954Z,100.00
2023-11-16T02:36:46.311Z,100.00
2023-11-16T02:39:22.589Z,100.00
2023-11-16T02:41:57.203Z,100.00
2023-11-16T02:44:31.416Z,100.00
2023-11-16T02:47:07.229Z,100.00
2023-11-16T02:49:43.755Z,100.00
2023-11-16T02:52:17.020Z,100.00
2023-11-16T02:54:52.118Z,100.00
2023-11-16T02:57:26.026Z,100.00
2023-11-16T03:00:00.339Z,100.00
2023-11-16T03:02:34.540Z,100.00
2023-11-16T03:05:09.328Z,100.00
2023-11-16T03:07:43.366Z,100.00
2023-11-16T03:10:17.787Z,100.00
2023-11-16T03:12:53.682Z,100.00
2023-11-16T03:15:27.513Z,100.00
2023-11-16T03:18:02.015Z,100.00
2023-11-16T03:20:35.687Z,100.00
2023-11-16T03:23:09.421Z,100.00
2023-11-16T03:25:44.295Z,100.00
2023-11-16T03:28:19.137Z,100.00
2023-11-16T03:30:53.171Z,100.00
2023-11-16T03:33:27.010Z,100.00
2023-11-16T03:36:00.205Z,100.00
2023-11-16T03:38:36.497Z,100.00
2023-11-16T03:41:12.386Z,100.00
2023-11-16T03:43:46.331Z,100.00
2023-11-16T03:46:20.961Z,100.00
2023-11-16T03:48:56.313Z,100.00
2023-11-16T03:51:31.661Z,100.00
2023-11-16T03:54:07.942Z,100.00
2023-11-16T03:56:42.096Z,100.00
2023-11-16T03:59:17.308Z,100.00
2023-11-16T04:01:51.350Z,100.00
2023-11-16T04:04:25.327Z,100.00
2023-11-16T04:06:59.327Z,100.00
2023-11-16T04:09:33.020Z,100.00
2023-11-16T04:12:08.067Z,100.00
2023-11-16T04:14:44.819Z,100.00
2023-11-16T04:17:18.885Z,100.00
2023-11-16T04:19:53.051Z,100.00
2023-11-16T04:22:26.042Z,100.00
2023-11-16T04:25:01.504Z,100.00
2023-11-16T04:27:35.224Z,100.00
2023-11-16T04:30:12.474Z,100.00
2023-11-16T04:32:46.736Z,100.00
2023-11-16T04:35:21.607Z,100.00
2023-11-16T04:37:56.497Z,100.00
2023-11-16T04:40:31.596Z,100.00
2023-11-16T04:43:05.773Z,100.00
2023-11-16T04:45:40.346Z,100.00
2023-11-16T04:48:14.548Z,100.00
2023-11-16T04:50:48.666Z,100.00
2023-11-16T04:53:22.643Z,100.00
2023-11-16T04:55:56.745Z,100.00
2023-11-16T04:58:32.337Z,100.00
2023-11-16T05:01:07.045Z,100.00
2023-11-16T05:03:41.381Z,100.00
2023-11-16T05:06:17.672Z,100.00
2023-11-16T05:08:50.938Z,100.00
2023-11-16T05:11:28.236Z,100.00
2023-11-16T05:14:02.081Z,100.00
2023-11-16T05:16:36.835Z,100.00
2023-11-16T05:19:12.456Z,100.00
2023-11-16T05:21:46.931Z,100.00
2023-11-16T05:24:22.367Z,100.00
2023-11-16T05:27:03.192Z,100.00
2023-11-16T05:29:37.633Z,100.00
2023-11-16T05:32:12.613Z,100.00
2023-11-16T05:34:47.497Z,100.00
2023-11-16T05:37:20.858Z,100.00
2023-11-16T05:39:54.327Z,100.00
2023-11-16T05:42:28.451Z,100.00
2023-11-16T05:45:02.516Z,100.00
2023-11-16T05:47:36.833Z,100.00
2023-11-16T05:50:14.766Z,100.00
2023-11-16T05:52:48.710Z,100.00
2023-11-16T05:55:23.246Z,100.00
2023-11-16T05:57:57.236Z,100.00
2023-11-16T06:00:33.074Z,100.00
2023-11-16T06:03:08.069Z,100.00
2023-11-16T06:05:43.163Z,100.00
2023-11-16T06:08:17.663Z,100.00
2023-11-16T06:10:52.347Z,100.00
2023-11-16T06:13:28.166Z,100.00
2023-11-16T06:16:02.439Z,100.00
2023-11-16T06:18:38.274Z,100.00
2023-11-16T06:21:14.164Z,100.00
2023-11-16T06:23:48.203Z,100.00
2023-11-16T06:26:22.934Z,100.00
2023-11-16T06:28:56.970Z,100.00
2023-11-16T06:31:32.204Z,100.00
2023-11-16T06:34:07.467Z,100.00
2023-11-16T06:36:42.887Z,100.00
2023-11-16T06:39:17.151Z,100.00
2023-11-16T06:41:51.212Z,100.00
2023-11-16T06:44:25.009Z,100.00
2023-11-16T06:46:59.287Z,100.00
2023-11-16T06:49:33.513Z,100.00
2023-11-16T06:52:07.515Z,100.00
2023-11-16T06:54:44.029Z,100.00
2023-11-16T06:57:18.407Z,100.00
2023-11-16T06:59:54.466Z,100.00
2023-11-16T07:02:28.726Z,100.00
2023-11-16T07:05:04.665Z,100.00
2023-11-16T07:07:38.523Z,100.00
2023-11-16T07:10:14.217Z,100.00
2023-11-16T07:12:48.530Z,100.00
2023-11-16T07:15:23.246Z,100.00
2023-11-16T07:17:57.185Z,100.00
2023-11-16T07:20:31.426Z,100.00
2023-11-16T07:23:05.172Z,100.00
2023-11-16T07:25:38.904Z,100.00
2023-11-16T07:28:13.259Z,100.00
2023-11-16T07:30:47.190Z,100.00
2023-11-16T07:33:23.517Z,100.00
2023-11-16T07:35:57.542Z,100.00
2023-11-16T07:38:33.436Z,100.00
2023-11-16T07:41:08.368Z,100.00
2023-11-16T07:43:44.596Z,100.00
2023-11-16T07:46:20.662Z,100.00
2023-11-16T07:48:56.592Z,100.00
2023-11-16T07:51:30.890Z,100.00
2023-11-16T07:54:05.684Z,100.00
2023-11-16T07:56:39.658Z,100.00
2023-11-16T07:59:16.171Z,100.00
2023-11-16T08:01:56.676Z,100.00
2023-11-16T08:04:33.293Z,100.00
2023-11-16T08:07:08.625Z,100.00
2023-11-16T08:09:43.706Z,100.00
2023-11-16T08:12:17.425Z,100.00
2023-11-16T08:14:53.336Z,100.00
2023-11-16T08:17:27.077Z,100.00
2023-11-16T08:20:01.085Z,100.00
2023-11-16T08:22:35.626Z,100.00
2023-11-16T08:25:13.954Z,100.00
2023-11-16T08:27:48.780Z,100.00
2023-11-16T08:30:24.714Z,100.00
2023-11-16T08:32:58.514Z,100.00
2023-11-16T08:35:32.417Z,100.00
2023-11-16T08:38:06.952Z,100.00
2023-11-16T08:40:40.734Z,100.00
2023-11-16T08:43:14.581Z,100.00
2023-11-16T08:45:48.951Z,100.00
2023-11-16T08:48:32.639Z,100.00
2023-11-16T08:51:10.307Z,100.00
2023-11-16T08:53:44.014Z,100.00
2023-11-16T08:56:26.552Z,100.00
2023-11-16T08:59:09.048Z,100.00
2023-11-16T09:01:44.946Z,100.00
2023-11-16T09:04:19.092Z,100.00
2023-11-16T09:06:52.124Z,100.00
2023-11-16T09:09:39.124Z,100.00
2023-11-16T09:12:17.968Z,100.00
2023-11-16T09:14:51.938Z,100.00
2023-11-16T09:17:25.846Z,100.00
2023-11-16T09:20:00.026Z,100.00
2023-11-16T09:22:34.901Z,100.00
2023-11-16T09:25:17.464Z,100.00
2023-11-16T09:27:51.931Z,100.00
2023-11-16T09:30:27.559Z,100.00
2023-11-16T09:33:02.332Z,100.00
2023-11-16T09:35:36.477Z,100.00
2023-11-16T09:38:13.368Z,100.00
2023-11-16T09:40:48.523Z,100.00
2023-11-16T09:43:25.989Z,100.00
2023-11-16T09:46:01.791Z,100.00
2023-11-16T09:48:40.762Z,100.00
2023-11-16T09:51:15.089Z,100.00
2023-11-16T09:53:52.192Z,100.00
2023-11-16T09:56:36.282Z,100.00
2023-11-16T09:59:18.994Z,100.00
2023-11-16T10:02:09.628Z,100.00
2023-11-16T10:04:44.961Z,100.00
2023-11-16T10:07:27.174Z,100.00
2023-11-16T10:10:01.395Z,100.00
2023-11-16T10:12:35.401Z,100.00
2023-11-16T10:15:20.712Z,100.00
2023-11-16T10:17:57.442Z,100.00
2023-11-16T10:20:33.007Z,100.00
2023-11-16T10:23:07.388Z,100.00
2023-11-16T10:25:41.809Z,100.00
2023-11-16T10:28:20.519Z,100.00
2023-11-16T10:30:56.101Z,100.00
2023-11-16T10:33:31.270Z,100.00
2023-11-16T10:36:07.095Z,100.00
2023-11-16T10:38:41.368Z,100.00
2023-11-16T10:41:16.148Z,100.00
2023-11-16T10:43:54.419Z,100.00
2023-11-16T10:46:29.452Z,100.00
2023-11-16T10:49:05.448Z,100.00
2023-11-16T10:51:42.645Z,100.00
2023-11-16T10:54:19.903Z,100.00
2023-11-16T10:56:56.078Z,100.00
2023-11-16T10:59:31.260Z,100.00
2023-11-16T11:02:12.388Z,100.00
2023-11-16T11:04:46.435Z,100.00
2023-11-16T11:07:19.798Z,100.00
2023-11-16T11:09:53.863Z,100.00
2023-11-16T11:12:29.473Z,100.00
2023-11-16T11:15:04.909Z,100.00
2023-11-16T11:17:45.741Z,100.00
2023-11-16T11:20:20.889Z,100.00
2023-11-16T11:22:54.045Z,100.00
2023-11-16T11:25:29.481Z,100.00
2023-11-16T11:28:03.105Z,100.00
2023-11-16T11:30:39.317Z,100.00
2023-11-16T11:33:20.246Z,100.00
2023-11-16T11:35:54.819Z,100.00
2023-11-16T11:38:31.445Z,100.00
2023-11-16T11:41:08.564Z,100.00
2023-11-16T11:43:45.365Z,100.00
2023-11-16T11:46:20.532Z,100.00
2023-11-16T11:48:55.928Z,100.00
2023-11-16T11:51:32.265Z,100.00
2023-11-16T11:54:06.562Z,100.00
2023-11-16T11:56:41.203Z,100.00
2023-11-16T11:59:15.326Z,100.00
2023-11-16T12:01:48.762Z,100.00
2023-11-16T12:04:22.525Z,99.33
2023-11-16T12:06:56.712Z,99.29
2023-11-16T12:09:32.448Z,99.55
2023-11-16T12:12:08.931Z,97.90
2023-11-16T12:14:49.259Z,97.64
2023-11-16T12:17:23.008Z,97.83
2023-11-16T12:19:58.522Z,96.21
2023-11-16T12:22:33.158Z,96.92
2023-11-16T12:25:07.163Z,96.35
2023-11-16T12:27:44.178Z,95.12
2023-11-16T12:30:21.045Z,94.25
2023-11-16T12:32:55.868Z,92.61
2023-11-16T12:35:30.086Z,89.79
2023-11-16T12:38:04.563Z,89.98
2023-11-16T12:40:38.363Z,89.80
2023-11-16T12:43:13.000Z,88.00
2023-11-16T12:45:47.506Z,89.07
2023-11-16T12:48:23.373Z,88.05
2023-11-16T12:50:57.681Z,85.86
2023-11-16T12:53:31.279Z,84.38
2023-11-16T12:56:07.124Z,86.03
2023-11-16T12:58:40.839Z,85.43
2023-11-16T13:01:16.344Z,87.02
2023-11-16T13:03:51.679Z,85.59
2023-11-16T13:06:26.142Z,85.89
2023-11-16T13:08:59.342Z,83.10
2023-11-16T13:11:33.436Z,82.97
2023-11-16T13:14:08.484Z,81.61
2023-11-16T13:16:42.860Z,81.68
2023-11-16T13:19:16.100Z,80.21
2023-11-16T13:21:49.515Z,80.22
2023-11-16T13:24:23.395Z,79.44
2023-11-16T13:26:57.484Z,76.62
2023-11-16T13:29:31.320Z,75.11
2023-11-16T13:32:05.939Z,74.29
2023-11-16T13:34:40.098Z,72.84
2023-11-16T13:37:13.329Z,72.27
2023-11-16T13:39:47.498Z,70.34
2023-11-16T13:42:21.676Z,70.35
2023-11-16T13:44:55.672Z,69.60
2023-11-16T13:47:32.662Z,68.02
2023-11-16T13:50:07.697Z,68.30
2023-11-16T13:52:42.265Z,67.68
2023-11-16T13:55:16.339Z,68.32
2023-11-16T13:57:49.923Z,68.94
2023-11-16T14:00:29.417Z,67.86
2023-11-16T14:03:03.566Z,67.61
2023-11-16T14:05:39.351Z,68.10
2023-11-16T14:08:12.737Z,69.07
2023-11-16T14:10:46.913Z,69.72
2023-11-16T14:13:21.866Z,70.46
2023-11-16T14:16:02.499Z,70.70
2023-11-16T14:18:42.194Z,71.32
2023-11-16T14:21:16.207Z,72.84
2023-11-16T14:23:52.761Z,73.26
2023-11-16T14:26:27.464Z,74.34
2023-11-16T14:29:01.709Z,74.80
2023-11-16T14:31:36.313Z,74.82
2023-11-16T14:34:10.530Z,75.87
2023-11-16T14:36:44.604Z,75.42
2023-11-16T14:39:18.857Z,75.65
2023-11-16T14:41:52.734Z,76.63
2023-11-16T14:44:26.556Z,76.12
2023-11-16T14:47:01.165Z,76.22
2023-11-16T14:49:37.558Z,76.42
2023-11-16T14:52:10.826Z,76.25
2023-11-16T14:54:46.434Z,76.24
2023-11-16T14:57:21.620Z,76.62
2023-11-16T14:59:55.251Z,76.57
2023-11-16T15:02:28.658Z,76.12
2023-11-16T15:05:09.789Z,76.51
2023-11-16T15:07:45.948Z,76.37
2023-11-16T15:10:22.429Z,76.13
2023-11-16T15:12:56.275Z,76.38
2023-11-16T15:15:30.352Z,76.68
2023-11-16T15:18:04.816Z,77.26
2023-11-16T15:20:39.248Z,78.13
2023-11-16T15:23:12.706Z,78.24
2023-11-16T15:25:48.212Z,78.92
2023-11-16T15:28:21.697Z,79.43
2023-11-16T15:30:55.693Z,79.37
2023-11-16T15:33:29.738Z,80.09
2023-11-16T15:36:04.212Z,80.65
2023-11-16T15:38:37.891Z,80.73
2023-11-16T15:41:11.748Z,81.54
2023-11-16T15:43:45.745Z,82.41
2023-11-16T15:46:20.241Z,82.72
2023-11-16T15:48:53.813Z,83.36
2023-11-16T15:51:29.286Z,85.03
2023-11-16T15:54:02.927Z,84.82
2023-11-16T15:56:37.578Z,86.23
2023-11-16T15:59:12.593Z,87.42
2023-11-16T16:01:46.784Z,87.75
2023-11-16T16:04:22.395Z,87.74
2023-11-16T16:06:58.062Z,88.89
2023-11-16T16:09:32.256Z,89.02
2023-11-16T16:12:08.874Z,90.23
2023-11-16T16:14:42.991Z,89.56
2023-11-16T16:17:17.198Z,90.80
2023-11-16T16:19:51.215Z,90.85
2023-11-16T16:22:24.884Z,91.43
2023-11-16T16:24:58.034Z,92.17
2023-11-16T16:27:31.318Z,92.04
2023-11-16T16:30:08.245Z,92.85
2023-11-16T16:32:41.759Z,94.53
2023-11-16T16:35:15.748Z,95.39
2023-11-16T16:37:48.935Z,95.81
2023-11-16T16:40:23.171Z,95.66
2023-11-16T16:42:57.016Z,97.21
2023-11-16T16:45:32.172Z,97.31
2023-11-16T16:48:09.484Z,98.33
2023-11-16T16:50:43.886Z,99.20
2023-11-16T16:53:19.895Z,99.95
2023-11-16T16:55:53.588Z,100.00
2023-11-16T16:58:27.566Z,100.00
2023-11-16T17:01:00.874Z,100.00
2023-11-16T17:03:35.048Z,100.00
2023-11-16T17:06:11.152Z,100.00
2023-11-16T17:08:45.084Z,100.00
2023-11-16T17:11:18.438Z,100.00
2023-11-16T17:13:55.899Z,100.00
2023-11-16T17:16:30.164Z,100.00
2023-11-16T17:19:04.001Z,100.00
2023-11-16T17:21:39.081Z,100.00
2023-11-16T17:24:13.350Z,100.00
2023-11-16T17:26:47.156Z,100.00
2023-11-16T17:29:24.006Z,100.00
2023-11-16T17:31:57.891Z,100.00
2023-11-16T17:34:33.256Z,100.00
2023-11-16T17:37:07.152Z,100.00
2023-11-16T17:39:42.383Z,100.00
2023-11-16T17:42:17.942Z,100.00
2023-11-16T17:44:54.232Z,100.00
2023-11-16T17:47:28.116Z,100.00
2023-11-16T17:50:01.944Z,100.00
2023-11-16T17:52:34.831Z,100.00
2023-11-16T17:55:20.697Z,100.00
2023-11-16T17:57:55.828Z,100.00
2023-11-16T18:00:32.164Z,100.00
2023-11-16T18:03:06.409Z,100.00
2023-11-16T18:05:39.792Z,100.00
2023-11-16T18:08:15.635Z,100.00
2023-11-16T18:10:55.394Z,100.00
2023-11-16T18:13:31.146Z,100.00
2023-11-16T18:16:06.128Z,100.00
2023-11-16T18:18:39.881Z,100.00
2023-11-16T18:21:13.564Z,100.00
2023-11-16T18:23:47.725Z,100.00
2023-11-16T18:26:22.072Z,100.00
2023-11-16T18:28:57.377Z,100.00
2023-11-16T18:31:32.000Z,100.00
2023-11-16T18:34:19.036Z,100.00
2023-11-16T18:36:53.221Z,100.00
2023-11-16T18:39:28.384Z,100.00
2023-11-16T18:42:02.236Z,100.00
2023-11-16T18:44:39.325Z,100.00
2023-11-16T18:47:14.400Z,100.00
2023-11-16T18:49:48.192Z,100.00
2023-11-16T18:52:22.362Z,100.00
2023-11-16T18:54:56.729Z,100.00
2023-11-16T18:57:35.232Z,100.00
2023-11-16T19:00:12.118Z,100.00
2023-11-16T19:02:45.896Z,100.00
2023-11-16T19:05:22.002Z,100.00
2023-11-16T19:07:55.245Z,100.00
2023-11-16T19:10:34.897Z,100.00
2023-11-16T19:13:13.267Z,100.00
2023-11-16T19:15:47.763Z,100.00
2023-11-16T19:18:24.622Z,100.00
2023-11-16T19:20:58.579Z,100.00
2023-11-16T19:23:33.608Z,100.00
2023-11-16T19:26:08.201Z,100.00
2023-11-16T19:28:42.486Z,100.00
2023-11-16T19:31:16.662Z,100.00
2023-11-16T19:33:50.898Z,100.00
2023-11-16T19:36:24.858Z,100.00
2023-11-16T19:39:03.081Z,100.00
2023-11-16T19:41:38.333Z,100.00
2023-11-16T19:44:13.823Z,100.00
2023-11-16T19:46:51.292Z,100.00
2023-11-16T19:49:24.970Z,100.00
2023-11-16T19:51:58.933Z,100.00
2023-11-16T19:54:32.740Z,100.00
2023-11-16T19:57:06.632Z,100.00
2023-11-16T19:59:46.031Z,100.00
2023-11-16T20:02:22.055Z,100.00
2023-11-16T20:04:56.732Z,100.00
2023-11-16T20:07:29.902Z,100.00
2023-11-16T20:10:07.652Z,100.00
2023-11-16T20:12:42.075Z,100.00
2023-11-16T20:15:15.981Z,100.00
2023-11-16T20:17:50.209Z,100.00
2023-11-16T20:20:27.391Z,100.00
2023-11-16T20:23:05.406Z,100.00
2023-11-16T20:25:39.097Z,100.00
2023-11-16T20:28:13.136Z,100.00
2023-11-16T20:30:47.772Z,100.00
2023-11-16T20:33:23.106Z,100.00
2023-11-16T20:35:58.964Z,100.00
2023-11-16T20:41:06.807Z,100.00
2023-11-16T20:43:40.229Z,100.00
2023-11-16T20:46:15.749Z,100.00
2023-11-16T20:48:51.330Z,100.00
2023-11-16T20:51:24.753Z,100.00
2023-11-16T20:53:59.052Z,100.00
2023-11-16T20:56:35.930Z,100.00
2023-11-16T20:59:10.893Z,100.00
2023-11-16T21:01:44.855Z,100.00
2023-11-16T21:04:19.407Z,100.00
2023-11-16T21:06:54.678Z,100.00
2023-11-16T21:09:28.395Z,100.00
2023-11-16T21:12:01.645Z,100.00
2023-11-16T21:14:37.112Z,100.00
2023-11-16T21:17:11.228Z,100.00
2023-11-16T21:19:45.428Z,100.00
2023-11-16T21:22:20.829Z,100.00
2023-11-16T21:24:54.464Z,100.00
2023-11-16T21:27:29.801Z,100.00
2023-11-16T21:30:07.697Z,100.00
2023-11-16T21:32:43.321Z,100.00
2023-11-16T21:35:18.990Z,100.00
2023-11-16T21:37:52.203Z,100.00
2023-11-16T21:40:26.193Z,100.00
2023-11-16T21:43:00.256Z,100.00
2023-11-16T21:45:35.246Z,100.00
2023-11-16T21:48:11.358Z,100.00
2023-11-16T21:50:45.137Z,100.00
2023-11-16T21:53:20.257Z,100.00
2023-11-16T21:55:55.205Z,100.00
2023-11-16T21:58:30.438Z,100.00
2023-11-16T22:01:04.450Z,100.00
2023-11-16T22:03:38.529Z,100.00
2023-11-16T22:06:13.265Z,100.00
2023-11-16T22:08:46.376Z,100.00
2023-11-16T22:11:21.740Z,100.00
2023-11-16T22:13:55.253Z,100.00
2023-11-16T22:16:29.466Z,100.00
2023-11-16T22:19:03.708Z,100.00
2023-11-16T22:21:39.161Z,100.00
2023-11-16T22:24:13.525Z,100.00
2023-11-16T22:26:48.480Z,100.00
2023-11-16T22:29:22.493Z,100.00
2023-11-16T22:31:56.951Z,100.00
2023-11-16T22:34:30.804Z,100.00
2023-11-16T22:37:04.793Z,100.00
2023-11-16T22:39:39.682Z,100.00
2023-11-16T22:42:14.266Z,100.00
2023-11-16T22:44:48.140Z,100.00
2023-11-16T22:47:22.678Z,100.00
2023-11-16T22:49:56.308Z,100.00
2023-11-16T22:52:30.159Z,100.00
2023-11-16T22:55:04.077Z,100.00
2023-11-16T22:57:37.630Z,100.00
2023-11-16T23:00:22.332Z,100.00
2023-11-16T23:02:56.221Z,100.00
2023-11-16T23:05:33.557Z,100.00
2023-11-16T23:08:10.595Z,100.00
2023-11-16T23:10:45.031Z,100.00
2023-11-16T23:13:20.638Z,100.00
2023-11-16T23:15:55.144Z,100.00
2023-11-16T23:18:29.442Z,100.00
2023-11-16T23:21:03.900Z,100.00
2023-11-16T23:23:37.105Z,100.00
2023-11-16T23:26:12.594Z,100.00
2023-11-16T23:28:46.097Z,100.00
2023-11-16T23:31:20.003Z,100.00
2023-11-16T23:33:54.105Z,100.00
2023-11-16T23:36:27.951Z,100.00
2023-11-16T23:39:01.414Z,100.00
2023-11-16T23:41:36.393Z,100.00
2023-11-16T23:44:11.720Z,100.00
2023-11-16T23:46:45.884Z,100.00
2023-11-16T23:49:21.441Z,100.00
2023-11-16T23:51:56.316Z,100.00
2023-11-16T23:54:30.169Z,100.00
2023-11-16T23:57:04.133Z,100.00
2023-11-16T23:59:37.944Z,100.00
